sensor_id;sensor_type;location;lat;lon;timestamp;pressure;altitude;pressure_sealevel;temperature;humidity
41040;BME280;48586;50.122;18.972;2023-11-19T00:00:40;99106.75;;;-1.95;61.03
41040;BME280;48586;50.122;18.972;2023-11-19T00:03:45;99106.81;;;-1.97;61.04
41040;BME280;48586;50.122;18.972;2023-11-19T00:06:51;99109.44;;;-1.97;60.89
41040;BME280;48586;50.122;18.972;2023-11-19T00:09:56;99117.38;;;-1.98;60.50
41040;BME280;48586;50.122;18.972;2023-11-19T00:13:11;99121.25;;;-2.08;60.46
41040;BME280;48586;50.122;18.972;2023-11-19T00:16:17;99117.31;;;-2.20;60.87
41040;BME280;48586;50.122;18.972;2023-11-19T00:19:21;99106.09;;;-2.25;61.27
41040;BME280;48586;50.122;18.972;2023-11-19T00:22:29;99112.16;;;-2.23;61.41
41040;BME280;48586;50.122;18.972;2023-11-19T00:25:35;99104.25;;;-2.22;61.18
41040;BME280;48586;50.122;18.972;2023-11-19T00:28:44;99100.16;;;-2.30;60.93
41040;BME280;48586;50.122;18.972;2023-11-19T00:31:49;99109.03;;;-2.34;61.41
41040;BME280;48586;50.122;18.972;2023-11-19T00:34:56;99110.06;;;-2.39;61.53
41040;BME280;48586;50.122;18.972;2023-11-19T00:38:01;99103.16;;;-2.41;61.66
41040;BME280;48586;50.122;18.972;2023-11-19T00:41:07;99098.13;;;-2.47;62.01
41040;BME280;48586;50.122;18.972;2023-11-19T00:44:14;99106.16;;;-2.52;62.15
41040;BME280;48586;50.122;18.972;2023-11-19T00:47:22;99106.28;;;-2.55;62.24
41040;BME280;48586;50.122;18.972;2023-11-19T00:50:27;99108.06;;;-2.57;62.70
41040;BME280;48586;50.122;18.972;2023-11-19T00:53:33;99095.56;;;-2.49;62.81
41040;BME280;48586;50.122;18.972;2023-11-19T00:56:38;99096.28;;;-2.44;62.84
41040;BME280;48586;50.122;18.972;2023-11-19T00:59:48;99082.66;;;-2.30;62.92
41040;BME280;48586;50.122;18.972;2023-11-19T01:02:53;99080.56;;;-2.20;61.96
41040;BME280;48586;50.122;18.972;2023-11-19T01:05:58;99090.94;;;-2.17;61.58
41040;BME280;48586;50.122;18.972;2023-11-19T01:09:04;99099.00;;;-2.22;61.20
41040;BME280;48586;50.122;18.972;2023-11-19T01:12:11;99094.81;;;-2.27;61.64
41040;BME280;48586;50.122;18.972;2023-11-19T01:15:20;99089.75;;;-2.32;61.49
41040;BME280;48586;50.122;18.972;2023-11-19T01:18:26;99085.50;;;-2.36;61.50
41040;BME280;48586;50.122;18.972;2023-11-19T01:21:32;99068.81;;;-2.33;61.77
41040;BME280;48586;50.122;18.972;2023-11-19T01:24:37;99063.44;;;-2.30;61.75
41040;BME280;48586;50.122;18.972;2023-11-19T01:27:42;99059.06;;;-2.30;62.11
41040;BME280;48586;50.122;18.972;2023-11-19T01:30:53;99061.41;;;-2.22;62.13
41040;BME280;48586;50.122;18.972;2023-11-19T01:33:59;99041.88;;;-2.15;61.96
41040;BME280;48586;50.122;18.972;2023-11-19T01:37:06;99020.63;;;-2.07;61.13
41040;BME280;48586;50.122;18.972;2023-11-19T01:40:14;99016.22;;;-2.07;60.65
41040;BME280;48586;50.122;18.972;2023-11-19T01:43:34;99039.97;;;-2.10;60.79
41040;BME280;48586;50.122;18.972;2023-11-19T01:46:47;99028.69;;;-2.12;61.01
41040;BME280;48586;50.122;18.972;2023-11-19T01:49:56;99009.09;;;-2.03;60.98
41040;BME280;48586;50.122;18.972;2023-11-19T01:53:07;98992.63;;;-2.07;60.49
41040;BME280;48586;50.122;18.972;2023-11-19T01:56:15;99000.28;;;-2.02;60.57
41040;BME280;48586;50.122;18.972;2023-11-19T01:59:20;98993.31;;;-2.02;60.61
41040;BME280;48586;50.122;18.972;2023-11-19T02:02:31;98997.72;;;-2.04;60.03
41040;BME280;48586;50.122;18.972;2023-11-19T02:05:36;98996.22;;;-2.10;59.91
41040;BME280;48586;50.122;18.972;2023-11-19T02:08:44;98982.47;;;-2.16;60.20
41040;BME280;48586;50.122;18.972;2023-11-19T02:11:48;98958.84;;;-2.16;60.41
41040;BME280;48586;50.122;18.972;2023-11-19T02:14:53;98965.88;;;-2.17;60.04
41040;BME280;48586;50.122;18.972;2023-11-19T02:18:21;98949.53;;;-2.23;60.50
41040;BME280;48586;50.122;18.972;2023-11-19T02:21:29;98932.63;;;-2.16;60.44
41040;BME280;48586;50.122;18.972;2023-11-19T02:24:34;98920.19;;;-2.11;60.53
41040;BME280;48586;50.122;18.972;2023-11-19T02:27:50;98921.78;;;-2.07;60.62
41040;BME280;48586;50.122;18.972;2023-11-19T02:30:59;98905.88;;;-2.04;60.77
41040;BME280;48586;50.122;18.972;2023-11-19T02:34:06;98898.88;;;-2.03;60.87
41040;BME280;48586;50.122;18.972;2023-11-19T02:37:12;98899.84;;;-2.06;61.00
41040;BME280;48586;50.122;18.972;2023-11-19T02:40:18;98898.84;;;-2.02;60.87
41040;BME280;48586;50.122;18.972;2023-11-19T02:43:27;98884.72;;;-1.99;61.23
41040;BME280;48586;50.122;18.972;2023-11-19T02:46:33;98881.06;;;-1.95;60.86
41040;BME280;48586;50.122;18.972;2023-11-19T02:49:37;98868.66;;;-1.92;60.82
41040;BME280;48586;50.122;18.972;2023-11-19T02:52:44;98862.56;;;-1.92;60.76
41040;BME280;48586;50.122;18.972;2023-11-19T02:55:49;98859.34;;;-1.99;59.84
41040;BME280;48586;50.122;18.972;2023-11-19T02:58:57;98857.88;;;-2.06;60.04
41040;BME280;48586;50.122;18.972;2023-11-19T03:02:04;98838.97;;;-2.14;60.11
41040;BME280;48586;50.122;18.972;2023-11-19T03:05:13;98839.78;;;-2.12;60.04
41040;BME280;48586;50.122;18.972;2023-11-19T03:08:18;98854.75;;;-2.16;60.00
41040;BME280;48586;50.122;18.972;2023-11-19T03:11:24;98858.50;;;-2.21;60.06
41040;BME280;48586;50.122;18.972;2023-11-19T03:14:33;98852.88;;;-2.34;59.45
41040;BME280;48586;50.122;18.972;2023-11-19T03:17:41;98850.69;;;-2.45;59.76
41040;BME280;48586;50.122;18.972;2023-11-19T03:20:46;98844.88;;;-2.53;60.25
41040;BME280;48586;50.122;18.972;2023-11-19T03:23:52;98841.47;;;-2.55;59.90
41040;BME280;48586;50.122;18.972;2023-11-19T03:26:56;98830.13;;;-2.55;60.21
41040;BME280;48586;50.122;18.972;2023-11-19T03:30:06;98810.78;;;-2.53;60.37
41040;BME280;48586;50.122;18.972;2023-11-19T03:33:11;98814.34;;;-2.54;60.58
41040;BME280;48586;50.122;18.972;2023-11-19T03:36:16;98824.81;;;-2.54;60.70
41040;BME280;48586;50.122;18.972;2023-11-19T03:39:21;98815.91;;;-2.50;60.94
41040;BME280;48586;50.122;18.972;2023-11-19T03:42:27;98813.97;;;-2.45;60.24
41040;BME280;48586;50.122;18.972;2023-11-19T03:45:34;98805.28;;;-2.47;60.68
41040;BME280;48586;50.122;18.972;2023-11-19T03:48:39;98797.19;;;-2.41;59.96
41040;BME280;48586;50.122;18.972;2023-11-19T03:51:44;98774.38;;;-2.39;59.96
41040;BME280;48586;50.122;18.972;2023-11-19T03:54:49;98770.91;;;-2.39;59.99
41040;BME280;48586;50.122;18.972;2023-11-19T03:57:54;98772.66;;;-2.40;60.13
41040;BME280;48586;50.122;18.972;2023-11-19T04:01:02;98758.56;;;-2.37;60.44
41040;BME280;48586;50.122;18.972;2023-11-19T04:04:07;98753.22;;;-2.34;60.01
41040;BME280;48586;50.122;18.972;2023-11-19T04:07:12;98744.44;;;-2.33;60.37
41040;BME280;48586;50.122;18.972;2023-11-19T04:10:17;98737.41;;;-2.32;60.30
41040;BME280;48586;50.122;18.972;2023-11-19T04:13:24;98732.09;;;-2.31;59.98
41040;BME280;48586;50.122;18.972;2023-11-19T04:16:31;98737.28;;;-2.29;59.79
41040;BME280;48586;50.122;18.972;2023-11-19T04:19:36;98743.53;;;-2.32;59.62
41040;BME280;48586;50.122;18.972;2023-11-19T04:22:42;98759.44;;;-2.36;59.67
41040;BME280;48586;50.122;18.972;2023-11-19T04:25:47;98761.53;;;-2.45;59.82
41040;BME280;48586;50.122;18.972;2023-11-19T04:28:52;98751.47;;;-2.55;60.03
41040;BME280;48586;50.122;18.972;2023-11-19T04:31:59;98749.94;;;-2.61;60.54
41040;BME280;48586;50.122;18.972;2023-11-19T04:35:05;98738.72;;;-2.64;61.50
41040;BME280;48586;50.122;18.972;2023-11-19T04:38:11;98723.59;;;-2.58;61.71
41040;BME280;48586;50.122;18.972;2023-11-19T04:41:16;98712.88;;;-2.52;61.73
41040;BME280;48586;50.122;18.972;2023-11-19T04:44:21;98722.19;;;-2.45;61.44
41040;BME280;48586;50.122;18.972;2023-11-19T04:47:28;98710.09;;;-2.49;61.19
41040;BME280;48586;50.122;18.972;2023-11-19T04:50:33;98704.72;;;-2.46;61.62
41040;BME280;48586;50.122;18.972;2023-11-19T04:53:38;98716.06;;;-2.45;61.68
41040;BME280;48586;50.122;18.972;2023-11-19T04:56:45;98714.44;;;-2.48;61.34
41040;BME280;48586;50.122;18.972;2023-11-19T04:59:50;98712.16;;;-2.55;60.90
41040;BME280;48586;50.122;18.972;2023-11-19T05:02:58;98701.34;;;-2.70;61.08
41040;BME280;48586;50.122;18.972;2023-11-19T05:06:02;98703.84;;;-2.67;61.61
41040;BME280;48586;50.122;18.972;2023-11-19T05:09:08;98696.66;;;-2.61;62.00
41040;BME280;48586;50.122;18.972;2023-11-19T05:12:14;98692.66;;;-2.50;61.88
41040;BME280;48586;50.122;18.972;2023-11-19T05:15:19;98678.19;;;-2.38;61.48
41040;BME280;48586;50.122;18.972;2023-11-19T05:18:27;98665.34;;;-2.24;61.30
41040;BME280;48586;50.122;18.972;2023-11-19T05:21:32;98654.53;;;-2.16;61.23
41040;BME280;48586;50.122;18.972;2023-11-19T05:24:37;98649.81;;;-2.08;61.35
41040;BME280;48586;50.122;18.972;2023-11-19T05:27:42;98657.06;;;-1.94;61.16
41040;BME280;48586;50.122;18.972;2023-11-19T05:30:47;98645.16;;;-1.83;61.01
41040;BME280;48586;50.122;18.972;2023-11-19T05:33:55;98647.53;;;-1.76;60.95
41040;BME280;48586;50.122;18.972;2023-11-19T05:37:00;98643.75;;;-1.71;61.22
41040;BME280;48586;50.122;18.972;2023-11-19T05:40:08;98643.28;;;-1.60;61.07
41040;BME280;48586;50.122;18.972;2023-11-19T05:43:15;98634.28;;;-1.55;61.07
41040;BME280;48586;50.122;18.972;2023-11-19T05:46:21;98617.69;;;-1.55;60.19
41040;BME280;48586;50.122;18.972;2023-11-19T05:49:29;98615.97;;;-1.56;59.80
41040;BME280;48586;50.122;18.972;2023-11-19T05:52:34;98622.84;;;-1.54;60.04
41040;BME280;48586;50.122;18.972;2023-11-19T05:55:39;98650.03;;;-1.55;60.18
41040;BME280;48586;50.122;18.972;2023-11-19T05:58:50;98659.34;;;-1.47;60.88
41040;BME280;48586;50.122;18.972;2023-11-19T06:01:55;98665.16;;;-1.41;61.15
41040;BME280;48586;50.122;18.972;2023-11-19T06:05:05;98655.72;;;-1.45;59.53
41040;BME280;48586;50.122;18.972;2023-11-19T06:08:11;98661.63;;;-1.59;59.31
41040;BME280;48586;50.122;18.972;2023-11-19T06:11:16;98656.03;;;-1.71;60.38
41040;BME280;48586;50.122;18.972;2023-11-19T06:14:21;98656.00;;;-1.70;61.05
41040;BME280;48586;50.122;18.972;2023-11-19T06:17:27;98646.97;;;-1.64;61.25
41040;BME280;48586;50.122;18.972;2023-11-19T06:20:34;98642.50;;;-1.62;62.22
41040;BME280;48586;50.122;18.972;2023-11-19T06:23:40;98638.75;;;-1.57;62.46
41040;BME280;48586;50.122;18.972;2023-11-19T06:26:45;98621.75;;;-1.48;62.20
41040;BME280;48586;50.122;18.972;2023-11-19T06:29:50;98607.53;;;-1.44;62.30
41040;BME280;48586;50.122;18.972;2023-11-19T06:32:56;98594.97;;;-1.37;62.22
41040;BME280;48586;50.122;18.972;2023-11-19T06:36:04;98588.28;;;-1.26;62.39
41040;BME280;48586;50.122;18.972;2023-11-19T06:39:10;98579.81;;;-1.13;62.09
41040;BME280;48586;50.122;18.972;2023-11-19T06:42:16;98574.22;;;-1.07;61.59
41040;BME280;48586;50.122;18.972;2023-11-19T06:45:21;98576.66;;;-1.03;61.57
41040;BME280;48586;50.122;18.972;2023-11-19T06:48:26;98571.16;;;-0.98;61.44
41040;BME280;48586;50.122;18.972;2023-11-19T06:51:33;98580.28;;;-0.88;61.36
41040;BME280;48586;50.122;18.972;2023-11-19T06:54:39;98567.88;;;-0.84;60.79
41040;BME280;48586;50.122;18.972;2023-11-19T06:57:44;98563.75;;;-0.73;60.77
41040;BME280;48586;50.122;18.972;2023-11-19T07:00:50;98559.13;;;-0.68;60.58
41040;BME280;48586;50.122;18.972;2023-11-19T07:03:56;98561.38;;;-0.60;60.45
41040;BME280;48586;50.122;18.972;2023-11-19T07:07:07;98554.78;;;-0.51;60.38
41040;BME280;48586;50.122;18.972;2023-11-19T07:10:12;98572.72;;;-0.42;59.80
41040;BME280;48586;50.122;18.972;2023-11-19T07:13:17;98566.28;;;-0.37;59.76
41040;BME280;48586;50.122;18.972;2023-11-19T07:16:23;98538.66;;;-0.28;59.54
41040;BME280;48586;50.122;18.972;2023-11-19T07:19:29;98561.31;;;-0.25;58.95
41040;BME280;48586;50.122;18.972;2023-11-19T07:22:40;98554.81;;;-0.18;59.49
41040;BME280;48586;50.122;18.972;2023-11-19T07:25:48;98551.78;;;-0.11;59.11
41040;BME280;48586;50.122;18.972;2023-11-19T07:28:54;98552.53;;;-0.09;59.37
41040;BME280;48586;50.122;18.972;2023-11-19T07:32:00;98541.94;;;-0.07;59.43
41040;BME280;48586;50.122;18.972;2023-11-19T07:35:06;98549.16;;;-0.11;59.17
41040;BME280;48586;50.122;18.972;2023-11-19T07:38:14;98537.69;;;-0.10;59.61
41040;BME280;48586;50.122;18.972;2023-11-19T07:41:19;98536.91;;;-0.12;59.14
41040;BME280;48586;50.122;18.972;2023-11-19T07:44:24;98544.19;;;-0.17;59.81
41040;BME280;48586;50.122;18.972;2023-11-19T07:47:28;98537.81;;;-0.13;59.47
41040;BME280;48586;50.122;18.972;2023-11-19T07:50:34;98519.41;;;-0.13;59.35
41040;BME280;48586;50.122;18.972;2023-11-19T07:53:41;98500.00;;;-0.10;60.15
41040;BME280;48586;50.122;18.972;2023-11-19T07:56:47;98507.31;;;0.01;59.27
41040;BME280;48586;50.122;18.972;2023-11-19T07:59:52;98493.03;;;0.05;58.94
41040;BME280;48586;50.122;18.972;2023-11-19T08:02:58;98496.19;;;0.11;59.16
41040;BME280;48586;50.122;18.972;2023-11-19T08:06:04;98483.38;;;0.21;58.45
41040;BME280;48586;50.122;18.972;2023-11-19T08:09:13;98465.59;;;0.25;58.15
41040;BME280;48586;50.122;18.972;2023-11-19T08:12:19;98478.34;;;0.32;58.23
41040;BME280;48586;50.122;18.972;2023-11-19T08:15:25;98464.81;;;0.38;57.86
41040;BME280;48586;50.122;18.972;2023-11-19T08:18:31;98461.84;;;0.44;57.72
41040;BME280;48586;50.122;18.972;2023-11-19T08:21:37;98468.81;;;0.45;56.71
41040;BME280;48586;50.122;18.972;2023-11-19T08:24:46;98469.75;;;0.44;57.10
41040;BME280;48586;50.122;18.972;2023-11-19T08:27:51;98466.09;;;0.47;57.40
41040;BME280;48586;50.122;18.972;2023-11-19T08:30:57;98461.59;;;0.49;57.09
41040;BME280;48586;50.122;18.972;2023-11-19T08:34:03;98464.97;;;0.51;57.14
41040;BME280;48586;50.122;18.972;2023-11-19T08:37:10;98452.75;;;0.50;57.26
41040;BME280;48586;50.122;18.972;2023-11-19T08:40:19;98460.56;;;0.51;56.79
41040;BME280;48586;50.122;18.972;2023-11-19T08:43:25;98440.59;;;0.47;56.72
41040;BME280;48586;50.122;18.972;2023-11-19T08:46:31;98447.84;;;0.44;56.86
41040;BME280;48586;50.122;18.972;2023-11-19T08:49:36;98459.22;;;0.44;57.03
41040;BME280;48586;50.122;18.972;2023-11-19T08:52:42;98455.56;;;0.47;57.30
41040;BME280;48586;50.122;18.972;2023-11-19T08:55:51;98460.50;;;0.53;57.49
41040;BME280;48586;50.122;18.972;2023-11-19T08:58:58;98438.94;;;0.61;57.65
41040;BME280;48586;50.122;18.972;2023-11-19T09:02:04;98429.09;;;0.64;57.32
41040;BME280;48586;50.122;18.972;2023-11-19T09:05:11;98424.50;;;0.68;57.33
41040;BME280;48586;50.122;18.972;2023-11-19T09:08:16;98415.66;;;0.69;57.10
41040;BME280;48586;50.122;18.972;2023-11-19T09:11:24;98394.97;;;0.77;57.27
41040;BME280;48586;50.122;18.972;2023-11-19T09:14:30;98385.94;;;0.81;57.55
41040;BME280;48586;50.122;18.972;2023-11-19T09:17:37;98387.28;;;0.88;57.49
41040;BME280;48586;50.122;18.972;2023-11-19T09:20:42;98401.72;;;0.97;56.76
41040;BME280;48586;50.122;18.972;2023-11-19T09:23:48;98399.66;;;1.02;56.38
41040;BME280;48586;50.122;18.972;2023-11-19T09:26:58;98387.31;;;1.02;55.99
41040;BME280;48586;50.122;18.972;2023-11-19T09:30:06;98383.09;;;1.00;54.79
41040;BME280;48586;50.122;18.972;2023-11-19T09:33:12;98382.13;;;1.01;55.31
41040;BME280;48586;50.122;18.972;2023-11-19T09:36:19;98367.47;;;1.11;55.03
41040;BME280;48586;50.122;18.972;2023-11-19T09:39:25;98361.16;;;1.14;56.64
41040;BME280;48586;50.122;18.972;2023-11-19T09:42:43;98349.66;;;1.29;54.85
41040;BME280;48586;50.122;18.972;2023-11-19T09:45:50;98347.41;;;1.23;54.34
41040;BME280;48586;50.122;18.972;2023-11-19T09:48:57;98337.50;;;1.26;54.61
41040;BME280;48586;50.122;18.972;2023-11-19T09:52:03;98320.16;;;1.36;55.47
41040;BME280;48586;50.122;18.972;2023-11-19T09:55:11;98304.59;;;1.46;55.13
41040;BME280;48586;50.122;18.972;2023-11-19T09:58:19;98297.09;;;1.67;55.16
41040;BME280;48586;50.122;18.972;2023-11-19T10:01:25;98288.81;;;1.73;53.11
41040;BME280;48586;50.122;18.972;2023-11-19T10:04:35;98294.94;;;1.74;52.59
41040;BME280;48586;50.122;18.972;2023-11-19T10:07:41;98285.56;;;1.82;54.39
41040;BME280;48586;50.122;18.972;2023-11-19T10:10:48;98286.66;;;1.92;52.77
41040;BME280;48586;50.122;18.972;2023-11-19T10:13:57;98267.22;;;1.93;52.89
41040;BME280;48586;50.122;18.972;2023-11-19T10:17:03;98258.16;;;1.97;53.35
41040;BME280;48586;50.122;18.972;2023-11-19T10:20:13;98261.97;;;2.06;53.40
41040;BME280;48586;50.122;18.972;2023-11-19T10:23:18;98236.63;;;2.04;52.12
41040;BME280;48586;50.122;18.972;2023-11-19T10:26:25;98238.31;;;2.05;52.69
41040;BME280;48586;50.122;18.972;2023-11-19T10:29:36;98240.41;;;2.00;53.29
41040;BME280;48586;50.122;18.972;2023-11-19T10:32:43;98236.41;;;2.07;53.17
41040;BME280;48586;50.122;18.972;2023-11-19T10:35:53;98232.94;;;2.06;52.63
41040;BME280;48586;50.122;18.972;2023-11-19T10:39:00;98228.16;;;1.99;52.62
41040;BME280;48586;50.122;18.972;2023-11-19T10:42:16;98225.63;;;1.97;52.54
41040;BME280;48586;50.122;18.972;2023-11-19T10:45:25;98206.59;;;1.92;52.84
41040;BME280;48586;50.122;18.972;2023-11-19T10:48:31;98196.22;;;1.89;53.35
41040;BME280;48586;50.122;18.972;2023-11-19T10:51:45;98188.53;;;1.86;53.23
41040;BME280;48586;50.122;18.972;2023-11-19T10:54:51;98200.13;;;1.83;53.53
41040;BME280;48586;50.122;18.972;2023-11-19T10:58:00;98182.78;;;1.79;54.07
41040;BME280;48586;50.122;18.972;2023-11-19T11:01:13;98172.34;;;1.78;54.41
41040;BME280;48586;50.122;18.972;2023-11-19T11:04:25;98195.13;;;1.66;55.01
41040;BME280;48586;50.122;18.972;2023-11-19T11:07:31;98188.66;;;1.57;56.01
41040;BME280;48586;50.122;18.972;2023-11-19T11:10:42;98188.00;;;1.54;56.22
41040;BME280;48586;50.122;18.972;2023-11-19T11:13:50;98170.78;;;1.48;56.87
41040;BME280;48586;50.122;18.972;2023-11-19T11:17:03;98168.25;;;1.47;57.18
41040;BME280;48586;50.122;18.972;2023-11-19T11:20:12;98166.97;;;1.40;58.46
41040;BME280;48586;50.122;18.972;2023-11-19T11:31:15;98155.50;;;0.85;60.38
41040;BME280;48586;50.122;18.972;2023-11-19T11:34:57;98154.41;;;0.75;60.74
41040;BME280;48586;50.122;18.972;2023-11-19T11:38:15;98148.47;;;0.57;60.98
41040;BME280;48586;50.122;18.972;2023-11-19T11:41:27;98142.53;;;0.39;61.27
41040;BME280;48586;50.122;18.972;2023-11-19T11:44:58;98144.34;;;0.25;61.85
41040;BME280;48586;50.122;18.972;2023-11-19T11:48:14;98146.59;;;0.02;62.48
41040;BME280;48586;50.122;18.972;2023-11-19T11:51:58;98128.81;;;-0.09;63.01
41040;BME280;48586;50.122;18.972;2023-11-19T11:55:08;98125.22;;;-0.08;63.42
41040;BME280;48586;50.122;18.972;2023-11-19T11:58:17;98119.03;;;-0.07;63.06
41040;BME280;48586;50.122;18.972;2023-11-19T12:01:25;98107.91;;;-0.12;63.28
41040;BME280;48586;50.122;18.972;2023-11-19T12:04:32;98105.66;;;-0.03;63.71
41040;BME280;48586;50.122;18.972;2023-11-19T12:07:54;98099.94;;;0.04;63.59
41040;BME280;48586;50.122;18.972;2023-11-19T12:11:03;98093.94;;;0.16;63.45
41040;BME280;48586;50.122;18.972;2023-11-19T12:14:09;98092.03;;;0.18;63.21
41040;BME280;48586;50.122;18.972;2023-11-19T12:17:43;98091.38;;;0.29;63.12
41040;BME280;48586;50.122;18.972;2023-11-19T12:20:53;98077.19;;;0.32;62.64
41040;BME280;48586;50.122;18.972;2023-11-19T12:24:02;98071.84;;;0.33;62.64
41040;BME280;48586;50.122;18.972;2023-11-19T12:27:09;98068.16;;;0.36;62.82
41040;BME280;48586;50.122;18.972;2023-11-19T12:30:18;98061.75;;;0.40;62.49
41040;BME280;48586;50.122;18.972;2023-11-19T12:33:27;98050.38;;;0.39;62.58
41040;BME280;48586;50.122;18.972;2023-11-19T12:36:35;98049.31;;;0.42;63.11
41040;BME280;48586;50.122;18.972;2023-11-19T12:39:43;98044.63;;;0.47;62.51
41040;BME280;48586;50.122;18.972;2023-11-19T12:42:50;98038.31;;;0.49;62.68
41040;BME280;48586;50.122;18.972;2023-11-19T12:45:56;98039.88;;;0.52;62.66
41040;BME280;48586;50.122;18.972;2023-11-19T12:49:03;98039.72;;;0.55;62.43
41040;BME280;48586;50.122;18.972;2023-11-19T12:52:13;98039.72;;;0.55;62.93
41040;BME280;48586;50.122;18.972;2023-11-19T12:55:28;98033.97;;;0.48;62.44
41040;BME280;48586;50.122;18.972;2023-11-19T12:58:36;98014.22;;;0.41;63.19
41040;BME280;48586;50.122;18.972;2023-11-19T13:01:54;98016.13;;;0.39;63.53
41040;BME280;48586;50.122;18.972;2023-11-19T13:05:25;98022.97;;;0.42;63.23
41040;BME280;48586;50.122;18.972;2023-11-19T13:08:37;98029.84;;;0.44;63.89
41040;BME280;48586;50.122;18.972;2023-11-19T13:11:46;98018.97;;;0.36;64.17
41040;BME280;48586;50.122;18.972;2023-11-19T13:14:52;98009.25;;;0.37;64.93
41040;BME280;48586;50.122;18.972;2023-11-19T13:17:57;98004.63;;;0.40;64.49
41040;BME280;48586;50.122;18.972;2023-11-19T13:21:03;98010.84;;;0.39;64.61
41040;BME280;48586;50.122;18.972;2023-11-19T13:24:10;97996.75;;;0.40;64.79
41040;BME280;48586;50.122;18.972;2023-11-19T13:27:20;97998.03;;;0.47;65.13
41040;BME280;48586;50.122;18.972;2023-11-19T13:30:25;97999.84;;;0.47;64.67
41040;BME280;48586;50.122;18.972;2023-11-19T13:33:32;98002.56;;;0.45;64.88
41040;BME280;48586;50.122;18.972;2023-11-19T13:36:38;97993.94;;;0.43;65.32
41040;BME280;48586;50.122;18.972;2023-11-19T13:39:45;97990.00;;;0.36;65.59
41040;BME280;48586;50.122;18.972;2023-11-19T13:42:53;97989.25;;;0.34;66.46
41040;BME280;48586;50.122;18.972;2023-11-19T13:45:59;97984.94;;;0.33;66.39
41040;BME280;48586;50.122;18.972;2023-11-19T13:49:04;97992.94;;;0.32;66.80
41040;BME280;48586;50.122;18.972;2023-11-19T13:52:10;97983.50;;;0.28;67.05
41040;BME280;48586;50.122;18.972;2023-11-19T13:55:16;97978.81;;;0.33;67.15
41040;BME280;48586;50.122;18.972;2023-11-19T13:58:26;97980.50;;;0.34;66.99
41040;BME280;48586;50.122;18.972;2023-11-19T14:01:31;97972.50;;;0.35;67.25
41040;BME280;48586;50.122;18.972;2023-11-19T14:04:36;97976.25;;;0.31;67.70
41040;BME280;48586;50.122;18.972;2023-11-19T14:07:44;97968.06;;;0.36;67.63
41040;BME280;48586;50.122;18.972;2023-11-19T14:10:51;97978.50;;;0.37;67.86
41040;BME280;48586;50.122;18.972;2023-11-19T14:14:00;97972.13;;;0.27;68.31
41040;BME280;48586;50.122;18.972;2023-11-19T14:17:06;97952.38;;;0.34;68.50
41040;BME280;48586;50.122;18.972;2023-11-19T14:20:12;97958.19;;;0.39;68.50
41040;BME280;48586;50.122;18.972;2023-11-19T14:23:20;97959.13;;;0.38;68.67
41040;BME280;48586;50.122;18.972;2023-11-19T14:26:28;97958.63;;;0.46;68.56
41040;BME280;48586;50.122;18.972;2023-11-19T14:29:37;97960.84;;;0.52;68.59
41040;BME280;48586;50.122;18.972;2023-11-19T14:32:42;97970.28;;;0.56;68.54
41040;BME280;48586;50.122;18.972;2023-11-19T14:35:50;97963.09;;;0.58;68.86
41040;BME280;48586;50.122;18.972;2023-11-19T14:38:56;97961.94;;;0.62;68.62
41040;BME280;48586;50.122;18.972;2023-11-19T14:42:03;97962.72;;;0.64;68.77
41040;BME280;48586;50.122;18.972;2023-11-19T14:45:15;97949.69;;;0.75;68.60
41040;BME280;48586;50.122;18.972;2023-11-19T14:48:21;97945.50;;;0.86;68.41
41040;BME280;48586;50.122;18.972;2023-11-19T14:51:26;97953.63;;;0.95;68.01
41040;BME280;48586;50.122;18.972;2023-11-19T14:54:31;97951.94;;;0.94;68.31
41040;BME280;48586;50.122;18.972;2023-11-19T14:57:37;97950.81;;;0.98;67.93
41040;BME280;48586;50.122;18.972;2023-11-19T15:00:48;97941.75;;;1.02;68.08
41040;BME280;48586;50.122;18.972;2023-11-19T15:03:53;97941.22;;;1.10;67.97
41040;BME280;48586;50.122;18.972;2023-11-19T15:07:00;97938.28;;;1.15;67.93
41040;BME280;48586;50.122;18.972;2023-11-19T15:10:07;97947.78;;;1.17;67.91
41040;BME280;48586;50.122;18.972;2023-11-19T15:13:17;97959.91;;;1.20;67.85
41040;BME280;48586;50.122;18.972;2023-11-19T15:16:25;97958.84;;;1.22;68.08
41040;BME280;48586;50.122;18.972;2023-11-19T15:19:33;97963.91;;;1.25;68.08
41040;BME280;48586;50.122;18.972;2023-11-19T15:22:39;97957.06;;;1.23;68.02
41040;BME280;48586;50.122;18.972;2023-11-19T15:25:46;97957.28;;;1.32;67.72
41040;BME280;48586;50.122;18.972;2023-11-19T15:28:52;97959.50;;;1.38;67.81
41040;BME280;48586;50.122;18.972;2023-11-19T15:32:05;97954.13;;;1.40;67.90
41040;BME280;48586;50.122;18.972;2023-11-19T15:35:11;97941.44;;;1.45;67.86
41040;BME280;48586;50.122;18.972;2023-11-19T15:38:18;97944.81;;;1.47;67.61
41040;BME280;48586;50.122;18.972;2023-11-19T15:41:24;97955.91;;;1.52;67.62
41040;BME280;48586;50.122;18.972;2023-11-19T15:44:31;97968.59;;;1.60;67.63
41040;BME280;48586;50.122;18.972;2023-11-19T15:47:39;97953.91;;;1.56;67.60
41040;BME280;48586;50.122;18.972;2023-11-19T15:50:46;97962.66;;;1.56;67.64
41040;BME280;48586;50.122;18.972;2023-11-19T15:53:51;97948.00;;;1.52;67.69
41040;BME280;48586;50.122;18.972;2023-11-19T15:56:57;97957.94;;;1.61;67.62
41040;BME280;48586;50.122;18.972;2023-11-19T16:00:02;97958.44;;;1.66;67.56
41040;BME280;48586;50.122;18.972;2023-11-19T16:03:16;97944.81;;;1.73;67.67
41040;BME280;48586;50.122;18.972;2023-11-19T16:06:22;97950.84;;;1.75;67.45
41040;BME280;48586;50.122;18.972;2023-11-19T16:09:28;97948.50;;;1.83;66.99
41040;BME280;48586;50.122;18.972;2023-11-19T16:12:36;97943.50;;;1.91;66.94
41040;BME280;48586;50.122;18.972;2023-11-19T16:15:45;97934.53;;;1.93;66.78
41040;BME280;48586;50.122;18.972;2023-11-19T16:18:53;97926.22;;;1.87;66.93
41040;BME280;48586;50.122;18.972;2023-11-19T16:21:58;97932.09;;;1.90;66.59
41040;BME280;48586;50.122;18.972;2023-11-19T16:25:11;97939.75;;;1.82;66.82
41040;BME280;48586;50.122;18.972;2023-11-19T16:28:18;97947.97;;;1.78;67.38
41040;BME280;48586;50.122;18.972;2023-11-19T16:31:25;97944.59;;;1.76;67.36
41040;BME280;48586;50.122;18.972;2023-11-19T16:34:36;97934.78;;;1.78;67.63